Time;durP1;ratioP1;P1;durP2;ratioP2;P2;SDS_P1;SDS_P2;PMS_P1;PMS_P2;Temp;Humidity;BMP_temperature;BMP_pressure;BME280_temperature;BME280_humidity;BME280_pressure;Samples;Min_cycle;Max_cycle;Signal;HPM_P1;HPM_P2
2022/01/25 00:24:31;;;;;;;16.38;14.10;;;8.40;99.90;;;;;;5041944;28;20682;-64
2022/01/25 00:29:58;;;;;;;17.25;13.52;;;8.50;99.90;;;;;;5054880;28;20232;-64
2022/01/25 00:32:25;;;;;;;17.38;14.07;;;8.40;99.90;;;;;;5051236;28;20249;-64
2022/01/25 00:34:57;;;;;;;18.90;14.60;;;8.40;99.90;;;;;;5041190;28;20359;-64
2022/01/25 00:37:24;;;;;;;18.33;14.88;;;8.40;99.90;;;;;;5047327;28;20567;-64
2022/01/25 00:39:51;;;;;;;16.42;13.65;;;8.40;99.90;;;;;;5048766;28;20226;-64
2022/01/25 00:42:18;;;;;;;18.95;14.98;;;8.40;99.90;;;;;;5047063;28;20246;-64
2022/01/25 00:44:49;;;;;;;16.98;12.65;;;8.40;99.90;;;;;;5043961;28;20226;-64
2022/01/25 00:47:17;;;;;;;15.90;12.95;;;8.40;99.90;;;;;;5047938;28;20230;-64
2022/01/25 00:49:46;;;;;;;18.52;13.40;;;8.40;99.90;;;;;;5050432;28;20296;-64
2022/01/25 00:52:23;;;;;;;15.60;13.88;;;8.40;99.90;;;;;;5056124;28;20696;-64
2022/01/25 00:54:52;;;;;;;17.50;13.32;;;8.40;99.90;;;;;;5058677;28;20307;-64
2022/01/25 00:57:20;;;;;;;15.82;13.00;;;8.40;99.90;;;;;;5058791;28;20248;-64
2022/01/25 00:59:48;;;;;;;15.57;13.05;;;8.30;99.90;;;;;;5049128;28;20229;-64
2022/01/25 01:02:16;;;;;;;20.45;14.82;;;8.30;99.90;;;;;;5049021;28;20695;-64
2022/01/25 01:04:43;;;;;;;15.75;12.93;;;8.40;99.90;;;;;;5054209;28;20220;-64
2022/01/25 01:07:13;;;;;;;16.50;13.05;;;8.40;99.90;;;;;;5048240;28;20596;-64
2022/01/25 01:09:42;;;;;;;17.73;14.10;;;8.40;99.90;;;;;;5047944;28;20267;-64
2022/01/25 01:12:15;;;;;;;15.73;13.25;;;8.40;99.90;;;;;;5046932;28;20306;-64
2022/01/25 01:15:00;;;;;;;17.50;12.65;;;8.30;99.90;;;;;;5040671;28;20692;-64
2022/01/25 01:28:48;;;;;;;20.00;14.45;;;8.40;99.90;;;;;;5038602;28;20699;-64
2022/01/25 01:31:49;;;;;;;19.67;15.02;;;8.30;99.90;;;;;;5011819;28;20232;-64
2022/01/25 01:40:16;;;;;;;19.00;13.95;;;8.30;99.90;;;;;;5014301;28;20236;-64
2022/01/25 01:42:58;;;;;;;22.50;14.82;;;8.20;99.90;;;;;;5043274;28;20233;-64
2022/01/25 01:45:36;;;;;;;19.60;14.38;;;8.30;99.90;;;;;;5047326;28;20310;-64
2022/01/25 01:48:06;;;;;;;20.02;14.70;;;8.20;99.90;;;;;;5047276;28;20875;-64
2022/01/25 01:50:36;;;;;;;20.00;14.63;;;8.20;99.90;;;;;;5040950;28;20687;-64
2022/01/25 01:53:05;;;;;;;18.33;14.30;;;8.20;99.90;;;;;;5039675;28;20286;-64
2022/01/25 01:55:34;;;;;;;19.27;15.07;;;8.20;99.90;;;;;;5045413;28;20227;-64
2022/01/25 01:58:03;;;;;;;21.35;15.00;;;8.20;99.90;;;;;;5046730;28;20223;-64
2022/01/25 02:00:34;;;;;;;19.33;15.45;;;8.30;99.90;;;;;;5042205;28;20234;-64
2022/01/25 02:03:01;;;;;;;20.75;16.30;;;8.20;99.90;;;;;;5039668;28;20238;-64
2022/01/25 02:05:29;;;;;;;21.52;15.70;;;8.20;99.90;;;;;;5053415;28;20231;-64
2022/01/25 02:07:58;;;;;;;21.40;16.33;;;8.20;99.90;;;;;;5035948;28;20254;-64
2022/01/25 02:10:25;;;;;;;19.38;16.20;;;8.20;99.90;;;;;;5040983;28;20223;-64
2022/01/25 02:12:52;;;;;;;20.10;15.77;;;8.20;99.90;;;;;;5033100;28;20226;-64
2022/01/25 02:15:20;;;;;;;21.02;16.20;;;8.20;99.90;;;;;;5046454;28;20318;-64
2022/01/25 02:22:23;;;;;;;23.77;17.33;;;8.10;99.90;;;;;;5041517;28;20311;-64
2022/01/25 02:23:29;;;;;;;20.52;14.82;;;8.10;99.90;;;;;;5046370;28;20238;-64
2022/01/25 02:25:58;;;;;;;23.65;18.15;;;8.10;99.90;;;;;;5045829;28;20795;-64
2022/01/25 02:28:27;;;;;;;23.70;17.35;;;8.10;99.90;;;;;;5040273;28;20223;-64
2022/01/25 02:30:54;;;;;;;25.48;18.60;;;8.10;99.90;;;;;;5038845;28;20224;-64
2022/01/25 02:33:21;;;;;;;24.75;18.30;;;8.10;99.90;;;;;;5045341;28;20219;-65
2022/01/25 02:35:49;;;;;;;25.20;17.45;;;8.10;99.90;;;;;;5045632;28;20248;-64
2022/01/25 02:38:21;;;;;;;27.40;19.80;;;8.00;99.90;;;;;;5041117;28;20224;-64
2022/01/25 02:40:48;;;;;;;25.33;18.20;;;8.00;99.90;;;;;;5038691;28;20243;-64
2022/01/25 02:43:17;;;;;;;32.50;19.58;;;8.00;99.90;;;;;;5043435;28;20675;-64
2022/01/25 02:45:48;;;;;;;29.10;18.92;;;8.00;99.90;;;;;;5045661;28;20282;-63
2022/01/25 02:48:30;;;;;;;23.40;16.00;;;8.00;99.90;;;;;;5043128;28;20305;-64
2022/01/25 02:50:59;;;;;;;25.95;18.77;;;7.90;99.90;;;;;;5038859;28;20231;-64
2022/01/25 02:53:27;;;;;;;32.22;19.80;;;7.90;99.90;;;;;;5039641;28;20231;-64
2022/01/25 02:55:54;;;;;;;34.60;20.02;;;7.90;99.90;;;;;;5045379;28;20235;-64
2022/01/25 02:58:21;;;;;;;29.50;17.85;;;7.90;99.90;;;;;;5045866;28;20224;-63
2022/01/25 03:00:49;;;;;;;28.35;19.45;;;7.80;99.90;;;;;;5039067;28;20245;-64
2022/01/25 03:03:18;;;;;;;26.92;18.13;;;7.80;99.90;;;;;;5039309;28;20231;-64
2022/01/25 03:05:45;;;;;;;27.05;19.45;;;7.70;99.90;;;;;;5052098;28;20233;-64
2022/01/25 03:08:15;;;;;;;30.25;20.60;;;7.70;99.90;;;;;;5037573;28;20222;-64
2022/01/25 03:10:44;;;;;;;25.95;19.08;;;7.80;99.90;;;;;;5043080;28;20238;-64
2022/01/25 03:13:15;;;;;;;24.10;18.83;;;7.70;99.90;;;;;;5034377;28;20234;-64
2022/01/25 03:15:56;;;;;;;29.70;18.80;;;7.80;99.90;;;;;;5042649;28;20234;-64
2022/01/25 03:18:43;;;;;;;30.23;19.45;;;7.80;99.90;;;;;;5045635;28;20221;-64
2022/01/25 03:21:20;;;;;;;29.40;19.92;;;7.80;99.90;;;;;;5038731;28;20226;-64
2022/01/25 03:23:49;;;;;;;33.47;22.17;;;7.70;99.90;;;;;;5043359;28;20564;-64
2022/01/25 03:26:17;;;;;;;29.35;20.20;;;7.70;99.90;;;;;;5045339;28;20309;-64
2022/01/25 03:28:44;;;;;;;30.27;18.60;;;7.70;99.90;;;;;;5041624;28;20234;-64
2022/01/25 03:31:11;;;;;;;30.33;19.27;;;7.80;99.90;;;;;;5041053;28;20247;-64
2022/01/25 03:33:38;;;;;;;28.70;19.42;;;7.70;99.90;;;;;;5042546;28;20237;-64
2022/01/25 03:36:07;;;;;;;29.60;19.95;;;7.70;99.90;;;;;;5045383;28;20256;-64
2022/01/25 03:38:35;;;;;;;29.77;20.38;;;7.70;99.90;;;;;;5042125;28;21045;-64
2022/01/25 03:41:05;;;;;;;24.50;17.10;;;7.70;99.90;;;;;;5038659;28;20245;-64
2022/01/25 03:43:32;;;;;;;32.03;21.95;;;7.70;99.90;;;;;;5040773;28;20676;-64
2022/01/25 03:46:03;;;;;;;33.67;21.23;;;7.70;99.90;;;;;;5049159;28;20244;-64
2022/01/25 03:51:14;;;;;;;34.63;23.45;;;7.70;99.90;;;;;;5049878;28;20284;-64
2022/01/25 03:53:41;;;;;;;32.33;20.45;;;7.70;99.90;;;;;;5041001;28;20695;-64
2022/01/25 03:56:09;;;;;;;29.42;20.35;;;7.80;99.90;;;;;;5047487;28;20231;-64
2022/01/25 03:58:36;;;;;;;30.17;20.15;;;7.80;99.90;;;;;;5048974;28;20951;-64
2022/01/25 04:01:03;;;;;;;31.95;20.45;;;7.70;99.90;;;;;;5044109;28;20689;-64
2022/01/25 04:03:34;;;;;;;25.75;17.95;;;7.70;99.90;;;;;;5041954;28;20549;-64
2022/01/25 04:06:02;;;;;;;45.92;28.35;;;7.70;99.90;;;;;;5055717;28;20332;-64
2022/01/25 04:08:29;;;;;;;29.35;20.08;;;7.70;99.90;;;;;;5041548;28;20234;-64
2022/01/25 04:10:56;;;;;;;28.65;18.63;;;7.70;99.90;;;;;;5039068;28;20700;-64
2022/01/25 04:13:24;;;;;;;29.15;19.85;;;7.70;99.90;;;;;;5048476;28;20575;-64
2022/01/25 04:15:54;;;;;;;31.23;19.80;;;7.80;99.90;;;;;;5046134;28;20226;-64
2022/01/25 04:18:28;;;;;;;27.80;18.85;;;7.80;99.90;;;;;;5041523;28;20226;-63
2022/01/25 04:21:05;;;;;;;31.85;20.65;;;7.80;99.90;;;;;;5043577;28;20246;-64
2022/01/25 04:26:15;;;;;;;32.47;20.33;;;7.80;99.90;;;;;;5041491;28;20256;-64
2022/01/25 04:28:44;;;;;;;28.77;17.48;;;7.80;99.90;;;;;;5046156;28;20564;-64
2022/01/25 04:31:10;;;;;;;36.30;23.67;;;7.70;99.90;;;;;;5048712;28;20238;-64
2022/01/25 04:33:43;;;;;;;29.83;18.63;;;7.70;99.90;;;;;;5044224;28;20222;-64
2022/01/25 04:36:39;;;;;;;26.92;17.38;;;7.70;99.90;;;;;;5041729;28;20606;-64
2022/01/25 04:50:31;;;;;;;31.55;21.65;;;7.70;99.90;;;;;;5044923;28;20236;-63
2022/01/25 04:53:07;;;;;;;32.03;20.23;;;7.70;99.90;;;;;;5041647;28;20595;-64
2022/01/25 04:55:40;;;;;;;33.33;20.63;;;7.80;99.90;;;;;;5040911;28;20231;-64
2022/01/25 04:58:13;;;;;;;29.90;19.25;;;7.80;99.90;;;;;;5047288;28;20306;-64
2022/01/25 05:00:41;;;;;;;25.73;17.10;;;7.80;99.90;;;;;;5047832;28;20234;-64
2022/01/25 05:03:11;;;;;;;23.20;15.35;;;7.70;99.90;;;;;;5034500;28;20554;-64
2022/01/25 05:05:51;;;;;;;27.40;18.20;;;7.80;99.90;;;;;;5049969;28;20679;-64
2022/01/25 05:08:28;;;;;;;25.73;17.95;;;7.80;99.90;;;;;;5042682;28;20212;-65
2022/01/25 05:11:04;;;;;;;29.10;19.42;;;7.80;99.90;;;;;;5051426;28;20318;-64
2022/01/25 05:13:41;;;;;;;29.02;20.25;;;7.80;99.90;;;;;;5040659;28;20310;-64
2022/01/25 05:16:16;;;;;;;27.50;17.08;;;7.80;99.90;;;;;;5045563;28;20828;-64
2022/01/25 05:18:46;;;;;;;30.55;20.85;;;7.80;99.90;;;;;;5042180;28;20242;-64
2022/01/25 05:24:00;;;;;;;45.88;27.63;;;7.80;99.90;;;;;;5040689;28;20217;-64
2022/01/25 05:26:28;;;;;;;28.75;19.35;;;7.80;99.90;;;;;;5040666;28;20677;-64
2022/01/25 05:28:55;;;;;;;36.63;23.27;;;7.80;99.90;;;;;;5046637;28;20242;-64
2022/01/25 05:31:23;;;;;;;24.40;16.13;;;7.80;99.90;;;;;;5039775;28;20619;-64
2022/01/25 05:33:50;;;;;;;43.30;28.45;;;7.80;99.90;;;;;;5047722;28;20222;-64
2022/01/25 05:36:17;;;;;;;30.35;19.27;;;7.80;99.90;;;;;;5049478;28;20238;-64
2022/01/25 05:38:44;;;;;;;85.05;48.72;;;7.80;99.90;;;;;;5038543;28;20235;-64
2022/01/25 05:41:13;;;;;;;56.05;34.72;;;7.80;99.90;;;;;;5036093;28;20291;-64
2022/01/25 05:46:41;;;;;;;29.98;20.20;;;7.80;99.90;;;;;;5034242;28;20214;-64
2022/01/25 05:49:09;;;;;;;37.15;23.80;;;7.80;99.90;;;;;;5046896;28;20308;-64
2022/01/25 05:51:35;;;;;;;35.08;20.88;;;7.80;99.90;;;;;;5033873;28;20228;-64
2022/01/25 05:54:02;;;;;;;32.70;20.00;;;7.80;99.90;;;;;;5047203;28;20226;-64
2022/01/25 05:56:29;;;;;;;56.08;34.13;;;7.80;99.90;;;;;;5040735;28;20241;-64
2022/01/25 05:58:56;;;;;;;29.75;19.05;;;7.80;99.90;;;;;;5040088;28;20219;-64
2022/01/25 06:01:23;;;;;;;29.40;20.70;;;7.80;99.90;;;;;;5045887;28;20269;-64
2022/01/25 06:03:51;;;;;;;40.30;24.35;;;7.80;99.90;;;;;;5047366;28;20227;-64
2022/01/25 06:06:18;;;;;;;49.80;31.90;;;7.80;99.90;;;;;;5052537;28;20233;-64
2022/01/25 06:08:45;;;;;;;29.45;19.65;;;7.80;99.90;;;;;;5046938;28;20226;-64
2022/01/25 06:11:12;;;;;;;30.10;20.05;;;7.80;99.90;;;;;;5043164;28;20232;-64
2022/01/25 06:13:39;;;;;;;28.20;19.13;;;7.80;99.90;;;;;;5034992;28;20227;-64
2022/01/25 06:16:06;;;;;;;62.58;33.78;;;7.80;99.90;;;;;;5044405;28;20696;-64
2022/01/25 06:18:33;;;;;;;28.70;19.45;;;7.80;99.90;;;;;;5037806;28;20227;-64
2022/01/25 06:21:01;;;;;;;26.25;18.70;;;7.70;99.90;;;;;;5047105;28;20242;-64
2022/01/25 06:23:27;;;;;;;38.15;21.10;;;7.80;99.90;;;;;;5037072;28;20234;-64
2022/01/25 06:25:54;;;;;;;25.85;18.80;;;7.80;99.90;;;;;;5047719;28;20233;-64
2022/01/25 06:28:21;;;;;;;27.90;18.02;;;7.80;99.90;;;;;;5053382;28;20242;-64
2022/01/25 06:30:49;;;;;;;36.05;24.45;;;7.80;99.90;;;;;;5053108;28;20574;-64
2022/01/25 06:33:16;;;;;;;31.35;18.25;;;7.70;99.90;;;;;;5052502;28;20232;-64
2022/01/25 06:35:45;;;;;;;29.63;18.75;;;7.80;99.90;;;;;;5061282;28;20245;-64
2022/01/25 06:38:13;;;;;;;28.20;17.65;;;7.80;99.90;;;;;;5049489;28;20692;-64
2022/01/25 06:40:40;;;;;;;28.48;17.60;;;7.80;99.90;;;;;;5033008;28;20231;-63
2022/01/25 06:43:07;;;;;;;28.48;18.15;;;7.70;99.90;;;;;;5046144;28;20230;-63
2022/01/25 06:45:39;;;;;;;23.38;17.05;;;7.80;99.90;;;;;;5034171;28;20300;-64
2022/01/25 06:48:06;;;;;;;21.80;16.20;;;7.70;99.90;;;;;;5039541;28;20699;-64
2022/01/25 06:50:33;;;;;;;29.33;17.90;;;7.80;99.90;;;;;;5052418;28;20228;-64
2022/01/25 06:53:00;;;;;;;23.83;15.70;;;7.80;99.90;;;;;;5039210;28;20232;-63
2022/01/25 06:55:28;;;;;;;25.63;16.95;;;7.80;99.90;;;;;;5045503;28;20219;-64
2022/01/25 06:57:55;;;;;;;27.17;17.48;;;7.80;99.90;;;;;;5046092;28;20230;-63
2022/01/25 07:00:24;;;;;;;25.80;17.20;;;7.80;99.90;;;;;;5039364;28;20240;-63
2022/01/25 07:02:51;;;;;;;28.00;17.85;;;7.80;99.90;;;;;;5039293;28;20227;-64
2022/01/25 07:05:18;;;;;;;27.95;18.23;;;7.80;99.90;;;;;;5052035;28;20230;-64
2022/01/25 07:07:46;;;;;;;31.20;21.15;;;7.70;99.90;;;;;;5037656;28;20224;-64
2022/01/25 07:10:13;;;;;;;32.97;22.13;;;7.70;99.90;;;;;;5034216;28;20230;-64
2022/01/25 07:12:41;;;;;;;37.83;23.55;;;7.70;99.90;;;;;;5033872;28;20238;-63
2022/01/25 07:15:09;;;;;;;40.70;26.10;;;7.80;99.90;;;;;;5044128;28;20234;-64
2022/01/25 07:17:36;;;;;;;31.63;21.05;;;7.70;99.90;;;;;;5045428;28;20223;-63
2022/01/25 07:20:05;;;;;;;32.28;20.52;;;7.80;99.90;;;;;;5041246;28;20234;-63
2022/01/25 07:22:32;;;;;;;27.20;18.83;;;7.80;99.90;;;;;;5038417;28;20213;-63
2022/01/25 07:24:58;;;;;;;27.55;19.77;;;7.70;99.90;;;;;;5043299;28;20234;-63
2022/01/25 07:27:25;;;;;;;25.15;17.42;;;7.80;99.90;;;;;;5047399;28;20217;-63
2022/01/25 07:29:53;;;;;;;30.73;19.65;;;7.80;99.90;;;;;;5046028;28;20234;-64
2022/01/25 07:32:20;;;;;;;27.08;17.50;;;7.80;99.90;;;;;;5042737;28;20558;-63
2022/01/25 07:34:47;;;;;;;31.77;19.38;;;7.80;99.90;;;;;;5055972;28;20226;-63
2022/01/25 07:37:14;;;;;;;28.40;19.40;;;7.80;99.90;;;;;;5041739;28;20232;-64
2022/01/25 07:39:42;;;;;;;29.42;20.10;;;7.80;99.90;;;;;;5046394;28;20979;-64
2022/01/25 07:42:10;;;;;;;34.38;19.52;;;7.80;99.90;;;;;;5042726;28;20230;-63
2022/01/25 07:44:39;;;;;;;34.65;20.20;;;7.80;99.90;;;;;;5044909;28;20245;-64
2022/01/25 07:47:08;;;;;;;30.00;20.48;;;7.80;99.90;;;;;;5045650;28;20305;-63
2022/01/25 07:49:35;;;;;;;29.75;20.42;;;7.80;99.90;;;;;;5055554;28;20226;-63
2022/01/25 07:52:02;;;;;;;31.75;19.92;;;7.80;99.90;;;;;;5042663;28;20229;-63
2022/01/25 07:54:29;;;;;;;38.78;22.00;;;7.80;99.90;;;;;;5042980;28;20237;-63
2022/01/25 07:56:56;;;;;;;35.83;20.92;;;7.70;99.90;;;;;;5049137;28;20231;-63
2022/01/25 07:59:23;;;;;;;40.50;24.02;;;7.70;99.90;;;;;;5048650;28;20236;-63
2022/01/25 08:01:50;;;;;;;35.90;21.60;;;7.80;99.90;;;;;;5042671;28;20408;-64
2022/01/25 08:04:19;;;;;;;31.77;20.42;;;7.80;99.90;;;;;;5042401;28;20306;-63
2022/01/25 08:06:46;;;;;;;35.85;22.80;;;7.80;99.90;;;;;;5042715;28;20964;-63
2022/01/25 08:09:13;;;;;;;33.63;22.67;;;7.80;99.90;;;;;;5042294;28;20724;-64
2022/01/25 08:11:40;;;;;;;34.53;22.20;;;7.80;99.90;;;;;;5047535;28;20238;-64
2022/01/25 08:14:14;;;;;;;37.70;23.45;;;7.80;99.90;;;;;;5049247;28;20696;-64
2022/01/25 08:16:42;;;;;;;35.70;21.13;;;7.80;99.90;;;;;;5043866;28;20312;-63
2022/01/25 08:19:10;;;;;;;38.72;22.85;;;7.80;99.90;;;;;;5042133;28;20310;-64
2022/01/25 08:21:40;;;;;;;34.63;20.63;;;7.80;99.90;;;;;;5045869;28;20738;-64
2022/01/25 08:24:07;;;;;;;32.42;21.50;;;7.80;99.90;;;;;;5049072;28;20286;-64
2022/01/25 08:26:35;;;;;;;32.90;21.23;;;7.80;99.90;;;;;;5044903;28;20227;-64
2022/01/25 08:29:02;;;;;;;33.10;20.05;;;7.80;99.90;;;;;;5042208;28;20221;-64
2022/01/25 08:31:29;;;;;;;33.55;20.88;;;7.80;99.90;;;;;;5044759;28;20247;-64
2022/01/25 08:33:56;;;;;;;33.55;21.23;;;7.90;99.90;;;;;;5048509;28;20224;-63
2022/01/25 08:36:22;;;;;;;35.55;21.67;;;7.80;99.90;;;;;;5043104;28;20218;-63
2022/01/25 08:38:51;;;;;;;36.75;22.73;;;7.90;99.90;;;;;;5043435;28;20222;-64
2022/01/25 08:41:18;;;;;;;31.08;20.25;;;7.90;99.90;;;;;;5044182;28;20247;-63
2022/01/25 08:43:45;;;;;;;33.90;21.33;;;7.90;99.90;;;;;;5048100;28;20237;-63
2022/01/25 08:46:12;;;;;;;27.13;20.08;;;7.90;99.90;;;;;;5039366;28;20229;-63
2022/01/25 08:48:39;;;;;;;31.92;22.58;;;8.00;99.90;;;;;;5048264;28;20572;-63
2022/01/25 08:51:07;;;;;;;39.60;22.83;;;8.00;99.90;;;;;;5046506;28;20318;-63
2022/01/25 08:53:34;;;;;;;36.60;20.83;;;8.10;99.90;;;;;;5041134;28;20295;-63
2022/01/25 08:56:02;;;;;;;34.00;20.17;;;8.10;99.90;;;;;;5042894;28;20234;-63
2022/01/25 08:58:29;;;;;;;37.13;23.63;;;8.00;99.90;;;;;;5048079;28;20242;-64
2022/01/25 09:00:57;;;;;;;30.98;20.75;;;8.10;99.90;;;;;;5053332;28;20222;-64
2022/01/25 09:03:23;;;;;;;35.80;21.73;;;8.10;99.90;;;;;;5041173;28;20234;-64
2022/01/25 09:05:50;;;;;;;31.83;19.70;;;8.00;99.90;;;;;;5054363;28;20228;-63
2022/01/25 09:08:21;;;;;;;33.50;21.38;;;8.00;99.90;;;;;;5040932;28;20219;-63
2022/01/25 09:10:50;;;;;;;32.67;20.52;;;8.00;99.90;;;;;;5051699;28;20676;-63
2022/01/25 09:13:18;;;;;;;33.78;21.55;;;8.00;99.90;;;;;;5041303;28;20305;-64
2022/01/25 09:15:45;;;;;;;32.25;19.05;;;8.00;99.90;;;;;;5040742;28;20227;-64
2022/01/25 09:18:15;;;;;;;33.85;20.15;;;8.00;99.90;;;;;;5047909;28;20229;-63
2022/01/25 09:20:43;;;;;;;30.13;20.08;;;8.00;99.90;;;;;;5047654;28;20251;-63
2022/01/25 09:23:10;;;;;;;32.55;19.42;;;8.00;99.90;;;;;;5041742;28;20229;-64
2022/01/25 09:25:37;;;;;;;32.95;21.13;;;8.00;99.90;;;;;;5042572;28;20226;-63
2022/01/25 09:28:04;;;;;;;34.85;21.80;;;8.00;99.90;;;;;;5052151;28;20747;-64
2022/01/25 09:30:32;;;;;;;37.67;22.02;;;8.00;99.90;;;;;;5058943;28;20230;-64
2022/01/25 09:32:59;;;;;;;41.38;27.20;;;8.00;99.90;;;;;;5057640;28;20680;-63
2022/01/25 09:35:27;;;;;;;37.85;24.60;;;8.10;99.90;;;;;;5051758;28;20220;-63
2022/01/25 09:37:54;;;;;;;34.72;23.35;;;8.00;99.90;;;;;;5046756;28;20233;-64
2022/01/25 09:40:21;;;;;;;32.35;21.25;;;8.00;99.90;;;;;;5053855;28;20227;-63
2022/01/25 09:42:52;;;;;;;34.65;22.83;;;8.00;99.90;;;;;;5059088;28;20730;-63
2022/01/25 09:45:19;;;;;;;37.47;22.65;;;8.00;99.90;;;;;;5045679;28;20430;-63
2022/01/25 09:47:47;;;;;;;43.38;27.17;;;8.00;99.90;;;;;;5035558;28;20231;-64
2022/01/25 09:50:15;;;;;;;31.35;20.75;;;8.00;99.90;;;;;;5044869;28;20704;-64
2022/01/25 09:52:42;;;;;;;59.88;31.13;;;8.10;99.90;;;;;;5048995;28;20269;-63
2022/01/25 09:55:12;;;;;;;36.35;21.90;;;8.00;99.90;;;;;;5036221;28;20696;-64
2022/01/25 09:57:39;;;;;;;38.35;22.80;;;8.10;99.90;;;;;;5046771;28;20296;-63
2022/01/25 10:00:07;;;;;;;34.92;20.55;;;8.00;99.90;;;;;;5040392;28;20236;-63
2022/01/25 10:02:44;;;;;;;32.97;20.60;;;8.10;99.90;;;;;;5039903;28;20235;-63
2022/01/25 10:05:25;;;;;;;34.15;21.35;;;8.10;99.90;;;;;;5053649;28;20227;-63
2022/01/25 10:08:05;;;;;;;30.67;18.88;;;8.10;99.90;;;;;;5039498;28;20233;-63
2022/01/25 10:10:34;;;;;;;29.65;17.48;;;8.10;99.90;;;;;;5039607;28;20246;-64
2022/01/25 10:13:14;;;;;;;30.67;19.15;;;8.10;99.90;;;;;;5039880;28;20287;-63
2022/01/25 10:15:41;;;;;;;30.45;18.33;;;8.10;99.90;;;;;;5039109;28;20284;-64
2022/01/25 10:18:09;;;;;;;28.92;18.75;;;8.10;99.90;;;;;;5044630;28;20268;-64
2022/01/25 10:20:40;;;;;;;27.38;19.30;;;8.20;99.90;;;;;;5046123;28;20234;-64
2022/01/25 10:23:11;;;;;;;29.55;17.50;;;8.10;99.90;;;;;;5043086;28;20230;-64
2022/01/25 10:25:41;;;;;;;30.98;19.40;;;8.20;99.90;;;;;;5039527;28;20607;-64
2022/01/25 10:28:12;;;;;;;29.75;16.13;;;8.20;99.90;;;;;;5041883;28;20223;-64
2022/01/25 10:30:49;;;;;;;34.53;19.88;;;8.20;99.90;;;;;;5045916;28;20646;-64
2022/01/25 10:33:24;;;;;;;27.13;18.80;;;8.30;99.90;;;;;;5046406;28;20243;-64
2022/01/25 10:35:53;;;;;;;28.05;17.20;;;8.30;99.90;;;;;;5032834;28;20222;-64
2022/01/25 10:38:27;;;;;;;28.95;17.80;;;8.40;99.90;;;;;;5040336;28;20297;-64
2022/01/25 10:41:01;;;;;;;25.42;16.45;;;8.30;99.90;;;;;;5042958;28;20236;-64
2022/01/25 10:43:29;;;;;;;25.67;16.17;;;8.30;99.90;;;;;;5046163;28;20588;-64
2022/01/25 10:46:15;;;;;;;28.27;16.48;;;8.30;99.90;;;;;;5037094;28;20223;-64
2022/01/25 10:48:46;;;;;;;26.88;16.92;;;8.30;99.90;;;;;;5039787;28;20230;-64
2022/01/25 10:51:17;;;;;;;24.90;15.02;;;8.30;99.90;;;;;;5049219;28;20231;-64
2022/01/25 10:53:44;;;;;;;21.55;13.77;;;8.30;99.90;;;;;;5043732;28;20273;-64
2022/01/25 10:56:12;;;;;;;25.90;16.85;;;8.40;99.90;;;;;;5034717;28;20229;-64
2022/01/25 10:58:41;;;;;;;25.15;16.30;;;8.40;99.90;;;;;;5046081;28;20230;-64
2022/01/25 11:01:10;;;;;;;21.63;15.50;;;8.40;99.90;;;;;;5037727;28;20238;-64
2022/01/25 11:03:40;;;;;;;23.10;14.50;;;8.40;99.90;;;;;;5032426;28;20313;-64
2022/01/25 11:06:13;;;;;;;26.75;15.50;;;8.40;99.90;;;;;;5032596;28;20221;-64
2022/01/25 11:08:43;;;;;;;20.23;13.43;;;8.40;99.90;;;;;;5032090;28;20235;-64
2022/01/25 11:11:12;;;;;;;26.20;15.52;;;8.40;99.90;;;;;;5032566;28;20228;-64
2022/01/25 11:13:47;;;;;;;27.70;18.90;;;8.40;99.90;;;;;;5032428;28;20223;-64
2022/01/25 11:16:14;;;;;;;26.80;17.58;;;8.40;99.90;;;;;;5032558;28;20229;-64
2022/01/25 11:18:41;;;;;;;22.55;14.38;;;8.40;99.90;;;;;;5032111;28;20231;-64
2022/01/25 11:21:11;;;;;;;19.08;13.50;;;8.50;99.90;;;;;;5032824;28;20238;-64
2022/01/25 11:23:41;;;;;;;19.42;13.77;;;8.50;99.90;;;;;;5032225;28;20223;-64
2022/01/25 11:26:10;;;;;;;17.20;12.73;;;8.50;99.90;;;;;;5032690;28;20223;-64
2022/01/25 11:28:39;;;;;;;20.52;13.75;;;8.50;99.90;;;;;;5032310;28;20241;-64
2022/01/25 11:31:08;;;;;;;19.77;12.95;;;8.50;99.90;;;;;;5032489;28;20226;-64
2022/01/25 11:33:40;;;;;;;19.08;13.13;;;8.50;99.90;;;;;;5032583;28;20233;-64
2022/01/25 11:36:08;;;;;;;24.38;15.27;;;8.50;99.90;;;;;;5052165;28;20214;-64
2022/01/25 11:38:37;;;;;;;23.38;16.00;;;8.50;99.90;;;;;;5036822;28;20234;-64
2022/01/25 11:41:10;;;;;;;22.98;14.77;;;8.50;99.90;;;;;;5031924;28;20232;-64
2022/01/25 11:43:38;;;;;;;22.13;13.88;;;8.50;99.90;;;;;;5032314;28;20228;-64
2022/01/25 11:46:07;;;;;;;17.88;12.18;;;8.50;99.90;;;;;;5032077;28;20228;-64
2022/01/25 11:48:43;;;;;;;21.55;12.15;;;8.50;99.90;;;;;;5038249;28;20227;-64
2022/01/25 11:51:18;;;;;;;16.33;11.18;;;8.50;99.90;;;;;;5050896;28;20326;-64
2022/01/25 11:53:48;;;;;;;17.38;11.27;;;8.50;99.90;;;;;;5052035;28;20271;-64
2022/01/25 11:56:17;;;;;;;17.88;11.82;;;8.60;99.90;;;;;;5051882;28;20222;-64
2022/01/25 11:58:57;;;;;;;16.90;10.90;;;8.60;99.90;;;;;;5051846;28;20242;-64
2022/01/25 12:01:26;;;;;;;19.70;13.27;;;8.60;99.90;;;;;;5045231;28;20218;-63
2022/01/25 12:04:02;;;;;;;17.77;11.15;;;8.60;99.90;;;;;;5045352;28;20234;-64
2022/01/25 12:06:34;;;;;;;19.00;12.30;;;8.50;99.90;;;;;;5052797;28;20243;-64
2022/01/25 12:09:13;;;;;;;18.23;11.63;;;8.50;99.90;;;;;;5059118;28;20237;-64
2022/01/25 12:11:45;;;;;;;16.48;11.75;;;8.60;99.90;;;;;;5051884;28;20234;-64
2022/01/25 12:14:25;;;;;;;19.20;12.60;;;8.50;99.90;;;;;;5052936;28;20846;-64
2022/01/25 12:16:55;;;;;;;18.05;13.07;;;8.50;99.90;;;;;;5060484;28;20299;-64
2022/01/25 12:19:32;;;;;;;17.70;11.07;;;8.50;99.90;;;;;;5055584;28;20227;-64
2022/01/25 12:22:02;;;;;;;27.52;12.73;;;8.50;99.90;;;;;;5055122;28;20278;-64
2022/01/25 12:24:34;;;;;;;24.30;13.15;;;8.50;99.90;;;;;;5055409;28;20220;-64
2022/01/25 12:27:09;;;;;;;22.23;14.18;;;8.50;99.90;;;;;;5055154;28;20828;-64
2022/01/25 12:29:39;;;;;;;17.70;13.23;;;8.60;99.90;;;;;;5042839;28;20282;-64
2022/01/25 12:32:28;;;;;;;19.30;12.35;;;8.60;99.90;;;;;;5053157;28;20349;-64
2022/01/25 12:35:10;;;;;;;18.35;11.75;;;8.60;99.90;;;;;;5054643;28;20237;-64
2022/01/25 12:38:05;;;;;;;22.80;13.77;;;8.60;99.90;;;;;;5041930;28;20238;-62
2022/01/25 12:40:40;;;;;;;19.58;13.73;;;8.60;99.90;;;;;;5053054;28;20219;-63
2022/01/25 12:43:10;;;;;;;21.10;13.20;;;8.60;99.90;;;;;;5047525;28;20233;-63
2022/01/25 12:45:41;;;;;;;24.08;12.70;;;8.60;99.90;;;;;;5054493;28;20284;-63
2022/01/25 12:48:10;;;;;;;24.17;14.55;;;8.50;99.90;;;;;;5054829;28;20298;-62
2022/01/25 12:50:38;;;;;;;21.52;14.60;;;8.60;99.90;;;;;;5054363;28;20227;-63
2022/01/25 12:53:07;;;;;;;23.45;15.95;;;8.70;99.90;;;;;;5054672;28;20222;-62
2022/01/25 12:55:36;;;;;;;23.20;14.07;;;8.70;99.90;;;;;;5054580;28;20226;-62
2022/01/25 12:58:05;;;;;;;25.70;18.15;;;8.60;99.90;;;;;;5054590;28;20230;-62
2022/01/25 13:00:36;;;;;;;23.00;16.02;;;8.60;99.90;;;;;;5054175;28;20318;-62
2022/01/25 13:03:17;;;;;;;25.60;17.10;;;8.50;99.90;;;;;;5064003;28;20555;-63
2022/01/25 13:05:46;;;;;;;27.90;15.75;;;8.50;99.90;;;;;;5046901;28;20302;-62
2022/01/25 13:08:26;;;;;;;24.23;14.43;;;8.50;99.90;;;;;;5036952;28;20227;-62
2022/01/25 13:10:57;;;;;;;22.48;15.05;;;8.50;99.90;;;;;;5047020;28;20277;-63
2022/01/25 13:13:30;;;;;;;29.77;16.40;;;8.50;99.90;;;;;;5060581;28;20246;-69
2022/01/25 13:15:59;;;;;;;25.77;16.98;;;8.40;99.90;;;;;;5036475;28;20231;-66
2022/01/25 13:18:30;;;;;;;24.38;15.88;;;8.40;99.90;;;;;;5047862;28;20246;-63
2022/01/25 13:21:06;;;;;;;25.63;16.85;;;8.50;99.90;;;;;;5040645;28;20232;-64
2022/01/25 13:23:34;;;;;;;24.92;15.88;;;8.40;99.90;;;;;;5039399;28;20283;-65
2022/01/25 13:26:11;;;;;;;26.83;18.60;;;8.50;99.90;;;;;;5036049;28;20737;-65
2022/01/25 13:28:53;;;;;;;23.80;16.35;;;8.50;99.90;;;;;;5048545;28;20307;-65
2022/01/25 13:31:24;;;;;;;27.85;16.60;;;8.50;99.90;;;;;;5034104;28;20588;-65
2022/01/25 13:33:54;;;;;;;25.95;17.60;;;8.60;99.90;;;;;;5039615;28;20240;-65
2022/01/25 13:36:22;;;;;;;24.42;15.38;;;8.60;99.90;;;;;;5047281;28;20223;-65
2022/01/25 13:38:50;;;;;;;28.08;17.08;;;8.70;99.90;;;;;;5053471;28;20239;-65
2022/01/25 13:41:24;;;;;;;24.17;16.58;;;8.70;99.90;;;;;;5048294;28;20716;-65
2022/01/25 13:46:39;;;;;;;28.38;17.58;;;8.80;99.90;;;;;;5051888;28;20229;-65
2022/01/25 13:49:09;;;;;;;28.33;19.23;;;8.80;99.90;;;;;;5046341;28;20226;-66
2022/01/25 13:51:40;;;;;;;26.38;17.52;;;8.90;99.90;;;;;;5033382;28;20232;-66
2022/01/25 13:54:07;;;;;;;26.50;16.23;;;8.90;99.90;;;;;;5033767;28;20213;-63
2022/01/25 13:56:36;;;;;;;29.70;18.77;;;8.90;99.90;;;;;;5033783;28;20222;-63
2022/01/25 13:59:04;;;;;;;23.70;15.82;;;8.90;99.90;;;;;;5039268;28;20234;-63
2022/01/25 14:01:33;;;;;;;25.08;15.00;;;8.90;99.90;;;;;;5048732;28;20219;-63